Time;durP1;ratioP1;P1;durP2;ratioP2;P2;SDS_P1;SDS_P2;PMS_P1;PMS_P2;Temp;Humidity;BMP_temperature;BMP_pressure;BME280_temperature;BME280_humidity;BME280_pressure;Samples;Min_cycle;Max_cycle;Signal;HPM_P1;HPM_P2
2022/06/20 00:01:32;;;;;;;;;;;20.20;68.80;;;;;;5075492;28;19958;-81
2022/06/20 00:03:58;;;;;;;;;;;20.20;69.80;;;;;;5073530;28;19908;-80
2022/06/20 00:06:24;;;;;;;;;;;20.20;69.30;;;;;;5069879;28;19916;-81
2022/06/20 00:08:51;;;;;;;;;;;20.10;69.00;;;;;;5076058;28;19909;-80
2022/06/20 00:11:19;;;;;;;;;;;20.10;69.20;;;;;;5074530;28;20284;-80
2022/06/20 00:13:46;;;;;;;;;;;20.10;68.50;;;;;;5075509;28;20276;-81
2022/06/20 00:16:13;;;;;;;;;;;20.10;68.50;;;;;;5067740;28;19970;-81
2022/06/20 00:18:39;;;;;;;;;;;20.10;69.30;;;;;;5074608;28;19908;-80
2022/06/20 00:21:05;;;;;;;;;;;20.00;69.40;;;;;;5068923;28;19912;-81
2022/06/20 00:23:30;;;;;;;;;;;20.00;69.30;;;;;;5075725;28;19908;-80
2022/06/20 00:25:56;;;;;;;;;;;20.00;69.40;;;;;;5075218;28;19913;-81
2022/06/20 00:28:21;;;;;;;;;;;19.90;69.10;;;;;;5076069;28;19914;-81
2022/06/20 00:30:47;;;;;;;;;;;20.00;69.60;;;;;;5072452;28;19912;-81
2022/06/20 00:33:13;;;;;;;;;;;19.90;69.40;;;;;;5063565;28;19909;-81
2022/06/20 00:35:38;;;;;;;;;;;19.90;69.30;;;;;;5074620;28;19951;-81
2022/06/20 00:38:05;;;;;;;;;;;19.90;69.60;;;;;;5075728;28;19909;-81
2022/06/20 00:40:36;;;;;;;;;;;19.90;69.80;;;;;;5075804;28;20003;-80
2022/06/20 00:43:03;;;;;;;;;;;19.80;69.60;;;;;;5074250;28;20352;-82
2022/06/20 00:45:32;;;;;;;;;;;19.80;70.00;;;;;;5075673;28;20280;-81
2022/06/20 00:48:01;;;;;;;;;;;19.80;69.90;;;;;;5073504;28;19921;-81
2022/06/20 00:50:28;;;;;;;;;;;19.80;70.00;;;;;;5075180;28;19912;-81
2022/06/20 00:52:56;;;;;;;;;;;19.80;70.10;;;;;;5074131;28;19956;-81
2022/06/20 00:55:28;;;;;;;;;;;19.80;70.00;;;;;;5074595;28;19977;-81
2022/06/20 00:57:57;;;;;;;;;;;19.70;69.80;;;;;;5074191;28;19912;-81
2022/06/20 01:00:25;;;;;;;;;;;19.70;70.00;;;;;;5075247;28;20372;-81
2022/06/20 01:03:02;;;;;;;;;;;19.70;69.90;;;;;;5072481;28;19913;-82
2022/06/20 01:05:34;;;;;;;;;;;19.70;70.20;;;;;;5054990;28;20440;-81
2022/06/20 01:08:02;;;;;;;;;;;19.60;70.30;;;;;;5058039;28;19921;-81
2022/06/20 01:10:30;;;;;;;;;;;19.60;70.30;;;;;;5073811;28;20060;-81
2022/06/20 01:13:01;;;;;;;;;;;19.60;70.30;;;;;;5073697;28;19912;-81
2022/06/20 01:15:31;;;;;;;;;;;19.60;70.70;;;;;;5074036;28;19908;-82
2022/06/20 01:17:57;;;;;;;;;;;19.60;70.60;;;;;;5072279;28;19920;-82
2022/06/20 01:20:27;;;;;;;;;;;19.60;70.40;;;;;;5068297;28;19912;-81
2022/06/20 01:22:52;;;;;;;;;;;19.60;70.70;;;;;;5069793;28;19952;-81
2022/06/20 01:25:27;;;;;;;;;;;19.60;70.60;;;;;;5071589;28;19954;-81
2022/06/20 01:27:53;;;;;;;;;;;19.50;70.40;;;;;;5071415;28;19995;-81
2022/06/20 01:30:19;;;;;;;;;;;19.50;70.70;;;;;;5074192;28;19979;-81
2022/06/20 01:32:45;;;;;;;;;;;19.50;70.90;;;;;;5070137;28;20007;-82
2022/06/20 01:35:12;;;;;;;;;;;19.50;70.90;;;;;;5073211;28;19951;-81
2022/06/20 01:37:40;;;;;;;;;;;19.50;71.00;;;;;;5072685;28;19913;-81
2022/06/20 01:40:08;;;;;;;;;;;19.50;71.00;;;;;;5070788;28;19917;-80
2022/06/20 01:42:34;;;;;;;;;;;19.50;71.10;;;;;;5068783;28;21690;-81
2022/06/20 01:45:03;;;;;;;;;;;19.40;70.80;;;;;;5067856;28;19920;-80
2022/06/20 01:47:29;;;;;;;;;;;19.40;71.00;;;;;;5069185;28;19913;-81
2022/06/20 01:50:00;;;;;;;;;;;19.40;70.60;;;;;;5064298;28;19916;-80
2022/06/20 01:52:28;;;;;;;;;;;19.40;70.70;;;;;;5070854;28;19927;-80
2022/06/20 01:54:56;;;;;;;;;;;19.40;71.20;;;;;;5067356;28;20015;-81
2022/06/20 01:57:22;;;;;;;;;;;19.40;71.10;;;;;;5066987;28;19916;-81
2022/06/20 01:59:55;;;;;;;;;;;19.30;71.20;;;;;;5069714;28;19939;-81
2022/06/20 02:02:21;;;;;;;;;;;19.30;71.30;;;;;;5071296;28;19915;-80
2022/06/20 02:04:47;;;;;;;;;;;19.30;71.30;;;;;;5067606;28;19912;-81
2022/06/20 02:07:13;;;;;;;;;;;19.30;71.10;;;;;;5071057;28;19912;-81
2022/06/20 02:09:39;;;;;;;;;;;19.30;71.10;;;;;;5063785;28;19920;-81
2022/06/20 02:12:05;;;;;;;;;;;19.20;71.10;;;;;;5068633;28;19915;-81
2022/06/20 02:14:39;;;;;;;;;;;19.20;71.40;;;;;;5069521;28;19912;-81
2022/06/20 02:17:06;;;;;;;;;;;19.30;71.50;;;;;;5072154;28;19909;-82
2022/06/20 02:19:34;;;;;;;;;;;19.20;71.50;;;;;;5067727;28;20420;-81
2022/06/20 02:22:02;;;;;;;;;;;19.20;71.40;;;;;;5072859;28;19909;-80
2022/06/20 02:24:29;;;;;;;;;;;19.10;71.50;;;;;;5072235;28;19916;-81
2022/06/20 02:26:56;;;;;;;;;;;19.10;71.80;;;;;;5071443;28;19964;-81
2022/06/20 02:29:24;;;;;;;;;;;19.10;71.70;;;;;;5072676;28;19916;-81
2022/06/20 02:32:01;;;;;;;;;;;19.10;71.70;;;;;;5070702;28;20011;-82
2022/06/20 02:34:28;;;;;;;;;;;19.10;72.00;;;;;;5068248;28;19918;-82
2022/06/20 02:36:55;;;;;;;;;;;19.10;72.00;;;;;;5070869;28;19947;-82
2022/06/20 02:39:21;;;;;;;;;;;19.10;71.80;;;;;;5071493;28;19916;-82
2022/06/20 02:41:49;;;;;;;;;;;19.00;72.00;;;;;;5068889;28;20356;-82
2022/06/20 02:44:16;;;;;;;;;;;19.00;72.10;;;;;;5066218;28;20042;-82
2022/06/20 02:46:42;;;;;;;;;;;19.00;71.90;;;;;;5070260;28;19916;-81
2022/06/20 02:49:09;;;;;;;;;;;19.00;71.90;;;;;;5070884;28;19912;-81
2022/06/20 02:51:36;;;;;;;;;;;19.00;72.40;;;;;;5069380;28;19912;-81
2022/06/20 02:54:03;;;;;;;;;;;19.00;72.20;;;;;;5071029;28;20046;-81
2022/06/20 02:56:31;;;;;;;;;;;19.00;72.50;;;;;;5069340;28;19912;-81
2022/06/20 02:59:02;;;;;;;;;;;19.00;72.40;;;;;;5064114;28;19909;-80
2022/06/20 03:01:43;;;;;;;;;;;19.00;72.70;;;;;;5066994;28;20278;-80
2022/06/20 03:04:08;;;;;;;;;;;18.90;72.50;;;;;;5050831;28;19909;-80
2022/06/20 03:06:37;;;;;;;;;;;18.90;72.70;;;;;;5071644;28;19924;-81
2022/06/20 03:09:03;;;;;;;;;;;18.90;72.70;;;;;;5055506;28;19913;-80
2022/06/20 03:11:30;;;;;;;;;;;18.90;72.70;;;;;;5055282;28;19916;-80
2022/06/20 03:13:57;;;;;;;;;;;18.90;72.90;;;;;;5063391;28;19920;-80
2022/06/20 03:16:23;;;;;;;;;;;18.80;73.00;;;;;;5062711;28;20377;-81
2022/06/20 03:18:50;;;;;;;;;;;18.90;73.00;;;;;;5070471;28;20002;-80
2022/06/20 03:21:21;;;;;;;;;;;18.80;72.70;;;;;;5067932;28;19908;-81
2022/06/20 03:23:47;;;;;;;;;;;18.80;72.80;;;;;;5074231;28;19916;-80
2022/06/20 03:26:18;;;;;;;;;;;18.80;72.80;;;;;;5071385;28;19915;-80
2022/06/20 03:28:44;;;;;;;;;;;18.80;73.10;;;;;;5065379;28;20705;-81
2022/06/20 03:31:10;;;;;;;;;;;18.80;73.00;;;;;;5073126;28;19914;-81
2022/06/20 03:33:36;;;;;;;;;;;18.80;73.10;;;;;;5069828;28;19962;-80
2022/06/20 03:36:25;;;;;;;;;;;18.80;73.20;;;;;;5071275;28;19912;-80
2022/06/20 03:38:50;;;;;;;;;;;18.70;73.10;;;;;;5066672;28;20569;-80
2022/06/20 03:41:18;;;;;;;;;;;18.70;72.90;;;;;;5072715;28;19956;-80
2022/06/20 03:43:47;;;;;;;;;;;18.70;73.10;;;;;;5072831;28;19913;-80
2022/06/20 03:46:19;;;;;;;;;;;18.70;73.10;;;;;;5072240;28;19919;-80
2022/06/20 03:49:07;;;;;;;;;;;18.70;72.90;;;;;;5071315;28;20023;-80
2022/06/20 03:51:37;;;;;;;;;;;18.60;73.10;;;;;;5068265;28;19908;-80
2022/06/20 03:54:08;;;;;;;;;;;18.60;73.20;;;;;;5070484;28;19922;-80
2022/06/20 03:57:00;;;;;;;;;;;18.60;73.40;;;;;;5072557;28;19970;-80
2022/06/20 03:59:32;;;;;;;;;;;18.60;73.20;;;;;;5065867;28;20331;-80
2022/06/20 04:02:01;;;;;;;;;;;18.60;73.30;;;;;;5074610;28;20369;-81
2022/06/20 04:04:48;;;;;;;;;;;18.60;73.20;;;;;;5064305;28;19999;-81
2022/06/20 04:07:18;;;;;;;;;;;18.60;73.00;;;;;;5070841;28;20720;-81
2022/06/20 04:12:43;;;;;;;;;;;18.60;73.20;;;;;;5072754;28;19950;-80
2022/06/20 04:15:18;;;;;;;;;;;18.60;73.30;;;;;;5067324;28;19918;-80
2022/06/20 04:20:52;;;;;;;;;;;18.50;73.30;;;;;;5069899;28;19919;-81
2022/06/20 04:23:32;;;;;;;;;;;18.50;73.20;;;;;;5072346;28;19919;-81
2022/06/20 04:26:07;;;;;;;;;;;18.50;73.40;;;;;;5068584;28;20519;-81
2022/06/20 04:28:36;;;;;;;;;;;18.50;73.20;;;;;;5069306;28;19912;-81
2022/06/20 04:31:06;;;;;;;;;;;18.50;73.40;;;;;;5069116;28;19960;-81
2022/06/20 04:33:44;;;;;;;;;;;18.50;73.20;;;;;;5066120;28;19909;-81
2022/06/20 04:36:25;;;;;;;;;;;18.50;73.30;;;;;;5063670;28;19917;-81
2022/06/20 04:38:55;;;;;;;;;;;18.50;73.40;;;;;;5065748;28;19908;-81
2022/06/20 04:41:32;;;;;;;;;;;18.50;73.30;;;;;;5070529;28;20645;-81
2022/06/20 04:44:01;;;;;;;;;;;18.40;73.40;;;;;;5068494;28;19913;-81
2022/06/20 04:46:32;;;;;;;;;;;18.40;73.40;;;;;;5067966;28;19928;-80
2022/06/20 04:49:00;;;;;;;;;;;18.40;73.50;;;;;;5070520;28;19912;-81
2022/06/20 04:51:33;;;;;;;;;;;18.40;73.40;;;;;;5068665;28;19923;-80
2022/06/20 04:53:59;;;;;;;;;;;18.40;73.60;;;;;;5066099;28;19917;-80
2022/06/20 04:56:26;;;;;;;;;;;18.40;73.60;;;;;;5069369;28;20007;-81
2022/06/20 04:58:54;;;;;;;;;;;18.40;73.70;;;;;;5066022;28;19987;-81
2022/06/20 05:01:20;;;;;;;;;;;18.40;73.60;;;;;;5065749;28;19916;-82
2022/06/20 05:03:48;;;;;;;;;;;18.40;73.90;;;;;;5069487;28;19916;-81
2022/06/20 05:06:17;;;;;;;;;;;18.30;73.70;;;;;;5058781;28;19916;-80
2022/06/20 05:08:45;;;;;;;;;;;18.40;73.80;;;;;;5068891;28;20446;-81
2022/06/20 05:11:16;;;;;;;;;;;18.30;73.60;;;;;;5062497;28;19997;-81
2022/06/20 05:13:45;;;;;;;;;;;18.30;73.80;;;;;;5069666;28;20443;-81
2022/06/20 05:16:16;;;;;;;;;;;18.30;73.80;;;;;;5063781;28;19913;-81
2022/06/20 05:18:43;;;;;;;;;;;18.30;73.90;;;;;;5064380;28;19912;-81
2022/06/20 05:21:10;;;;;;;;;;;18.30;73.80;;;;;;5067934;28;19908;-80
2022/06/20 05:23:45;;;;;;;;;;;18.30;73.80;;;;;;5068132;28;19923;-80
2022/06/20 05:26:14;;;;;;;;;;;18.30;73.80;;;;;;5064073;28;19908;-80
2022/06/20 05:28:40;;;;;;;;;;;18.30;73.80;;;;;;5060600;28;19951;-81
2022/06/20 05:31:06;;;;;;;;;;;18.30;73.80;;;;;;5071358;28;19948;-80
2022/06/20 05:33:32;;;;;;;;;;;18.30;74.00;;;;;;5064087;28;20294;-80
2022/06/20 05:35:57;;;;;;;;;;;18.20;73.80;;;;;;5064506;28;19916;-80
2022/06/20 05:38:23;;;;;;;;;;;18.30;74.10;;;;;;5062853;28;20592;-80
2022/06/20 05:40:50;;;;;;;;;;;18.20;74.10;;;;;;5064339;28;19912;-80
2022/06/20 05:43:18;;;;;;;;;;;18.20;74.00;;;;;;5066686;28;19913;-80
2022/06/20 05:45:46;;;;;;;;;;;18.20;74.10;;;;;;5064940;28;20015;-80
2022/06/20 05:48:12;;;;;;;;;;;18.20;74.10;;;;;;5063508;28;19920;-80
2022/06/20 05:51:03;;;;;;;;;;;18.20;74.10;;;;;;5067008;28;19959;-80
2022/06/20 05:53:40;;;;;;;;;;;18.20;74.10;;;;;;5079471;28;20361;-80
2022/06/20 05:56:13;;;;;;;;;;;18.20;74.10;;;;;;5069523;28;20361;-80
2022/06/20 05:58:41;;;;;;;;;;;18.20;74.10;;;;;;5069600;28;19912;-80
2022/06/20 06:01:11;;;;;;;;;;;18.10;74.00;;;;;;5066277;28;19908;-81
2022/06/20 06:03:42;;;;;;;;;;;18.10;74.20;;;;;;5068467;28;19923;-81
2022/06/20 06:06:28;;;;;;;;;;;18.10;74.20;;;;;;5067025;28;19983;-81
2022/06/20 06:08:55;;;;;;;;;;;18.10;74.20;;;;;;5068298;28;19999;-82
2022/06/20 06:11:20;;;;;;;;;;;18.10;74.20;;;;;;5069559;28;20359;-82
2022/06/20 06:13:58;;;;;;;;;;;18.10;74.20;;;;;;5068253;28;19956;-81
2022/06/20 06:19:11;;;;;;;;;;;18.10;74.20;;;;;;5058156;28;19923;-81
2022/06/20 06:21:36;;;;;;;;;;;18.10;74.20;;;;;;5068468;28;19913;-81
2022/06/20 06:24:03;;;;;;;;;;;18.10;74.20;;;;;;5067304;28;19913;-81
2022/06/20 06:26:29;;;;;;;;;;;18.10;74.20;;;;;;5069813;28;19913;-80
2022/06/20 06:28:54;;;;;;;;;;;18.10;74.20;;;;;;5070125;28;19915;-80
2022/06/20 06:31:22;;;;;;;;;;;18.20;74.30;;;;;;5068667;28;19913;-80
2022/06/20 06:33:53;;;;;;;;;;;18.20;74.40;;;;;;5064457;28;19917;-80
2022/06/20 06:36:25;;;;;;;;;;;18.20;74.20;;;;;;5062543;28;19944;-79
2022/06/20 06:39:01;;;;;;;;;;;18.20;74.10;;;;;;5069724;28;19993;-80
2022/06/20 06:41:30;;;;;;;;;;;18.20;74.20;;;;;;5082174;28;19919;-80
2022/06/20 06:43:58;;;;;;;;;;;18.20;74.20;;;;;;5070898;28;19917;-79
2022/06/20 06:46:33;;;;;;;;;;;18.20;74.20;;;;;;5066761;28;19943;-80
2022/06/20 06:49:17;;;;;;;;;;;18.20;74.10;;;;;;5068438;28;20584;-80
2022/06/20 06:51:59;;;;;;;;;;;18.30;74.30;;;;;;5069742;28;19913;-79
2022/06/20 06:54:27;;;;;;;;;;;18.30;74.20;;;;;;5072545;28;19916;-79
2022/06/20 06:56:57;;;;;;;;;;;18.30;74.10;;;;;;5074820;28;19936;-80
2022/06/20 06:59:29;;;;;;;;;;;18.30;74.20;;;;;;5076203;28;19917;-79
2022/06/20 07:01:58;;;;;;;;;;;18.40;74.20;;;;;;5075461;28;19912;-79
2022/06/20 07:04:29;;;;;;;;;;;18.40;74.20;;;;;;5076079;28;20268;-79
2022/06/20 07:07:06;;;;;;;;;;;18.40;74.20;;;;;;5074472;28;20460;-79
2022/06/20 07:09:36;;;;;;;;;;;18.40;74.20;;;;;;5072135;28;20007;-79
2022/06/20 07:12:13;;;;;;;;;;;18.40;74.20;;;;;;5073807;28;19912;-79
2022/06/20 07:14:43;;;;;;;;;;;18.40;74.00;;;;;;5076160;28;19917;-80
2022/06/20 07:17:29;;;;;;;;;;;18.40;74.10;;;;;;5069154;28;20337;-79
2022/06/20 07:19:55;;;;;;;;;;;18.40;74.10;;;;;;5070367;28;19944;-79
2022/06/20 07:22:22;;;;;;;;;;;18.50;74.10;;;;;;5074498;28;19912;-79
2022/06/20 07:24:49;;;;;;;;;;;18.50;74.20;;;;;;5074362;28;19916;-79
2022/06/20 07:27:19;;;;;;;;;;;18.50;74.00;;;;;;5068373;28;19966;-79
2022/06/20 07:29:55;;;;;;;;;;;18.50;73.90;;;;;;5075108;28;20553;-79
2022/06/20 07:32:36;;;;;;;;;;;18.60;73.80;;;;;;5072015;28;20332;-79
2022/06/20 07:35:06;;;;;;;;;;;18.60;73.70;;;;;;5073488;28;19974;-79
2022/06/20 07:37:37;;;;;;;;;;;18.60;73.70;;;;;;5073951;28;19951;-79
2022/06/20 07:40:22;;;;;;;;;;;18.60;73.60;;;;;;5076739;28;20000;-79
2022/06/20 07:42:51;;;;;;;;;;;18.70;73.50;;;;;;5072839;28;19917;-79
2022/06/20 07:45:17;;;;;;;;;;;18.70;73.50;;;;;;5075101;28;19959;-79
2022/06/20 07:47:47;;;;;;;;;;;18.80;73.50;;;;;;5074333;28;19947;-79
2022/06/20 07:50:16;;;;;;;;;;;18.80;73.40;;;;;;5071671;28;19944;-79
2022/06/20 07:53:02;;;;;;;;;;;18.80;73.40;;;;;;5074903;28;19913;-79
2022/06/20 07:55:29;;;;;;;;;;;18.80;73.20;;;;;;5064411;28;20301;-79
2022/06/20 07:57:58;;;;;;;;;;;18.90;73.20;;;;;;5068871;28;20007;-80
2022/06/20 08:00:27;;;;;;;;;;;18.90;73.30;;;;;;5075175;28;19909;-79
2022/06/20 08:03:19;;;;;;;;;;;18.90;73.30;;;;;;5074756;28;19966;-80
2022/06/20 08:05:48;;;;;;;;;;;18.90;73.90;;;;;;5061736;28;20004;-79
2022/06/20 08:08:36;;;;;;;;;;;18.90;73.10;;;;;;5071298;28;19921;-79
2022/06/20 08:11:06;;;;;;;;;;;18.90;73.30;;;;;;5071337;28;19908;-79
2022/06/20 08:13:37;;;;;;;;;;;18.90;73.00;;;;;;5071617;28;19959;-79
2022/06/20 08:16:11;;;;;;;;;;;19.00;73.00;;;;;;5071579;28;19912;-79
2022/06/20 08:18:37;;;;;;;;;;;19.00;72.90;;;;;;5059785;28;20011;-80
2022/06/20 08:21:16;;;;;;;;;;;19.00;72.90;;;;;;5069606;28;20002;-79
2022/06/20 08:23:44;;;;;;;;;;;19.00;72.80;;;;;;5069387;28;20349;-80
2022/06/20 08:26:12;;;;;;;;;;;19.00;72.50;;;;;;5071200;28;19912;-80
2022/06/20 08:28:41;;;;;;;;;;;19.10;72.60;;;;;;5072368;28;19917;-80
2022/06/20 08:31:15;;;;;;;;;;;19.10;72.60;;;;;;5069650;28;19909;-79
2022/06/20 08:33:53;;;;;;;;;;;19.10;72.30;;;;;;5066754;28;20347;-79
2022/06/20 08:36:22;;;;;;;;;;;19.20;72.10;;;;;;5070559;28;20004;-80
2022/06/20 08:38:58;;;;;;;;;;;19.20;71.80;;;;;;5072044;28;20645;-79
2022/06/20 08:41:26;;;;;;;;;;;19.20;71.80;;;;;;5067068;28;19975;-79
2022/06/20 08:44:11;;;;;;;;;;;19.20;72.00;;;;;;5072485;28;20290;-80
2022/06/20 08:46:39;;;;;;;;;;;19.20;72.00;;;;;;5066599;28;19990;-79
2022/06/20 08:49:16;;;;;;;;;;;19.20;72.10;;;;;;5072150;28;19915;-79
2022/06/20 08:52:06;;;;;;;;;;;19.20;72.10;;;;;;5069219;28;20299;-78
2022/06/20 08:54:31;;;;;;;;;;;19.20;72.20;;;;;;5070771;28;20054;-79
2022/06/20 08:57:15;;;;;;;;;;;19.20;72.20;;;;;;5066512;28;20007;-79
2022/06/20 08:59:44;;;;;;;;;;;19.20;72.30;;;;;;5070011;28;19916;-79
2022/06/20 09:02:28;;;;;;;;;;;19.20;72.90;;;;;;5069318;28;19916;-79
2022/06/20 09:04:53;;;;;;;;;;;19.20;71.70;;;;;;5066417;28;19962;-79
2022/06/20 09:07:25;;;;;;;;;;;19.30;71.70;;;;;;5062033;28;20353;-78
2022/06/20 09:09:50;;;;;;;;;;;19.30;71.40;;;;;;5069085;28;20326;-79
2022/06/20 09:12:54;;;;;;;;;;;19.40;71.30;;;;;;5067997;28;19913;-79
2022/06/20 09:15:26;;;;;;;;;;;19.40;71.10;;;;;;5026059;28;19932;-80
2022/06/20 09:17:51;;;;;;;;;;;19.60;70.70;;;;;;5016634;28;19921;-79
2022/06/20 09:20:26;;;;;;;;;;;19.60;70.80;;;;;;5055178;28;19916;-78
2022/06/20 09:23:06;;;;;;;;;;;19.50;70.80;;;;;;5070187;28;20349;-78
2022/06/20 09:25:32;;;;;;;;;;;19.50;70.90;;;;;;5064086;28;19921;-78
2022/06/20 09:28:16;;;;;;;;;;;19.50;70.60;;;;;;5070112;28;19985;-78
2022/06/20 09:31:08;;;;;;;;;;;19.60;70.70;;;;;;5071576;28;20361;-79
2022/06/20 09:33:36;;;;;;;;;;;19.60;70.10;;;;;;5049310;28;19912;-79
2022/06/20 09:36:40;;;;;;;;;;;19.60;70.10;;;;;;5071248;28;20046;-79
2022/06/20 09:39:15;;;;;;;;;;;19.60;70.20;;;;;;5042343;28;19917;-78
2022/06/20 09:41:46;;;;;;;;;;;19.60;70.50;;;;;;5048665;28;20022;-79
2022/06/20 09:44:18;;;;;;;;;;;19.60;69.60;;;;;;5062296;28;19916;-79
2022/06/20 09:46:56;;;;;;;;;;;19.60;70.20;;;;;;5069839;28;20000;-79
2022/06/20 09:49:34;;;;;;;;;;;19.60;69.70;;;;;;5071493;28;20003;-78
2022/06/20 09:52:06;;;;;;;;;;;19.60;70.10;;;;;;5066907;28;19909;-78
2022/06/20 09:54:43;;;;;;;;;;;19.80;69.70;;;;;;5073189;28;19920;-78
2022/06/20 09:57:27;;;;;;;;;;;19.90;69.20;;;;;;5070826;28;20417;-79
2022/06/20 09:59:53;;;;;;;;;;;20.10;68.80;;;;;;5065634;28;19956;-79
2022/06/20 10:02:26;;;;;;;;;;;20.10;68.30;;;;;;5069382;28;19948;-80
2022/06/20 10:04:51;;;;;;;;;;;20.10;68.10;;;;;;5062820;28;19958;-79
2022/06/20 10:07:16;;;;;;;;;;;20.20;67.90;;;;;;5066306;28;20718;-79
2022/06/20 10:10:05;;;;;;;;;;;20.30;67.50;;;;;;5068428;28;20372;-79
2022/06/20 10:12:37;;;;;;;;;;;20.30;67.60;;;;;;5069568;28;19931;-80
2022/06/20 10:15:14;;;;;;;;;;;20.30;67.50;;;;;;5068067;28;19913;-79
2022/06/20 10:17:58;;;;;;;;;;;20.30;67.60;;;;;;5069283;28;19915;-79
2022/06/20 10:20:35;;;;;;;;;;;20.40;67.40;;;;;;5064118;28;19950;-78
2022/06/20 10:23:20;;;;;;;;;;;20.50;67.00;;;;;;5071658;28;19930;-78
2022/06/20 10:26:04;;;;;;;;;;;20.50;67.20;;;;;;5058238;28;19919;-78
2022/06/20 10:28:35;;;;;;;;;;;20.40;67.00;;;;;;5067468;28;19962;-78
2022/06/20 10:31:06;;;;;;;;;;;20.50;67.40;;;;;;5072189;28;20350;-78
2022/06/20 10:33:39;;;;;;;;;;;20.50;67.40;;;;;;5070704;28;20276;-78
2022/06/20 10:36:05;;;;;;;;;;;20.50;67.40;;;;;;5071932;28;19917;-78
2022/06/20 10:38:38;;;;;;;;;;;20.50;67.30;;;;;;5070728;28;19955;-79
2022/06/20 10:41:06;;;;;;;;;;;20.70;66.90;;;;;;5070703;28;19917;-79
2022/06/20 10:43:35;;;;;;;;;;;20.80;66.50;;;;;;5069893;28;19909;-78
2022/06/20 10:46:19;;;;;;;;;;;21.00;66.10;;;;;;5068945;28;19913;-78
2022/06/20 10:48:45;;;;;;;;;;;20.90;66.10;;;;;;5070299;28;19919;-78
2022/06/20 10:51:20;;;;;;;;;;;20.90;66.20;;;;;;5069581;28;19912;-78
2022/06/20 10:53:46;;;;;;;;;;;20.90;66.30;;;;;;5070868;28;19924;-79
2022/06/20 10:56:14;;;;;;;;;;;20.90;66.00;;;;;;5069290;28;19912;-79
2022/06/20 10:58:55;;;;;;;;;;;21.00;65.30;;;;;;5071314;28;19939;-79
2022/06/20 11:01:43;;;;;;;;;;;21.10;65.20;;;;;;5067250;28;19977;-78
2022/06/20 11:04:19;;;;;;;;;;;21.20;64.90;;;;;;5066311;28;19958;-76
2022/06/20 11:06:48;;;;;;;;;;;21.40;65.10;;;;;;5069447;28;20392;-77
2022/06/20 11:09:13;;;;;;;;;;;21.40;64.70;;;;;;5070194;28;20444;-79
2022/06/20 11:11:42;;;;;;;;;;;21.50;64.70;;;;;;5065814;28;20027;-78
2022/06/20 11:14:16;;;;;;;;;;;21.50;64.80;;;;;;5070411;28;19912;-78
2022/06/20 11:16:50;;;;;;;;;;;21.40;64.40;;;;;;5065644;28;19927;-78
2022/06/20 11:19:18;;;;;;;;;;;21.50;64.70;;;;;;5071318;28;19912;-77
2022/06/20 11:21:50;;;;;;;;;;;21.50;64.70;;;;;;5065651;28;19995;-77
2022/06/20 11:24:34;;;;;;;;;;;21.60;64.00;;;;;;5070008;28;19909;-78
2022/06/20 11:27:02;;;;;;;;;;;21.70;64.10;;;;;;5067011;28;19923;-78
2022/06/20 11:29:38;;;;;;;;;;;21.70;64.00;;;;;;5070915;28;19966;-78
2022/06/20 11:32:10;;;;;;;;;;;21.80;64.00;;;;;;5064133;28;20003;-79
2022/06/20 11:34:54;;;;;;;;;;;21.80;64.00;;;;;;5069848;28;19916;-79
2022/06/20 11:37:27;;;;;;;;;;;21.80;64.00;;;;;;5063317;28;19917;-79
2022/06/20 11:40:04;;;;;;;;;;;21.80;63.80;;;;;;5070236;28;20315;-79
2022/06/20 11:42:45;;;;;;;;;;;21.80;63.90;;;;;;5069685;28;19970;-78
2022/06/20 11:45:29;;;;;;;;;;;21.80;64.00;;;;;;5073419;28;20383;-78
2022/06/20 11:48:01;;;;;;;;;;;21.90;63.80;;;;;;5065196;28;19928;-79
2022/06/20 11:50:40;;;;;;;;;;;21.90;64.30;;;;;;5069922;28;19909;-78
2022/06/20 11:53:08;;;;;;;;;;;21.90;63.70;;;;;;5070511;28;20479;-78
2022/06/20 11:55:41;;;;;;;;;;;21.90;63.80;;;;;;5073403;28;20353;-78
2022/06/20 11:58:18;;;;;;;;;;;21.90;63.80;;;;;;5074822;28;19999;-77
2022/06/20 12:00:48;;;;;;;;;;;22.00;63.50;;;;;;5074590;28;20405;-78
2022/06/20 12:03:17;;;;;;;;;;;22.10;63.10;;;;;;5074100;28;19936;-78
2022/06/20 12:05:54;;;;;;;;;;;22.10;63.20;;;;;;5073692;28;20346;-77
2022/06/20 12:08:20;;;;;;;;;;;22.30;63.00;;;;;;5070972;28;19923;-77
2022/06/20 12:10:47;;;;;;;;;;;22.30;63.00;;;;;;5068903;28;19913;-78
2022/06/20 12:13:25;;;;;;;;;;;22.40;62.40;;;;;;5070814;28;19917;-78
2022/06/20 12:15:53;;;;;;;;;;;22.50;62.40;;;;;;5072533;28;19919;-77
2022/06/20 12:18:29;;;;;;;;;;;22.50;62.60;;;;;;5071421;28;19920;-78
2022/06/20 12:23:43;;;;;;;;;;;22.60;62.20;;;;;;5073232;28;20363;-77
2022/06/20 12:26:14;;;;;;;;;;;22.70;62.20;;;;;;5071304;28;19954;-78
2022/06/20 12:28:42;;;;;;;;;;;22.80;62.10;;;;;;5071262;28;20432;-78
2022/06/20 12:31:08;;;;;;;;;;;22.80;61.80;;;;;;5074437;28;20315;-78
2022/06/20 12:33:35;;;;;;;;;;;22.90;61.30;;;;;;5069312;28;19919;-77
2022/06/20 12:36:06;;;;;;;;;;;22.80;61.50;;;;;;5069090;28;19916;-78
2022/06/20 12:38:46;;;;;;;;;;;22.80;61.80;;;;;;5071689;28;19909;-77
2022/06/20 12:41:14;;;;;;;;;;;22.80;62.10;;;;;;5073945;28;19916;-77
2022/06/20 12:43:44;;;;;;;;;;;22.80;62.00;;;;;;5072798;28;19912;-78
2022/06/20 12:46:16;;;;;;;;;;;22.90;61.30;;;;;;5072701;28;19935;-78
2022/06/20 12:48:45;;;;;;;;;;;23.10;61.20;;;;;;5070842;28;19966;-79
2022/06/20 12:51:33;;;;;;;;;;;23.20;60.70;;;;;;5068106;28;19957;-78
2022/06/20 12:54:17;;;;;;;;;;;23.30;60.50;;;;;;5069614;28;19920;-78
2022/06/20 12:56:45;;;;;;;;;;;23.30;60.10;;;;;;5063997;28;19909;-77
2022/06/20 12:59:17;;;;;;;;;;;23.20;60.90;;;;;;5070581;28;19912;-77
2022/06/20 13:02:01;;;;;;;;;;;23.20;60.30;;;;;;5068259;28;20004;-77
2022/06/20 13:04:50;;;;;;;;;;;23.30;60.80;;;;;;5060707;28;19912;-77
2022/06/20 13:07:27;;;;;;;;;;;23.30;60.40;;;;;;5060813;28;20530;-79
2022/06/20 13:09:53;;;;;;;;;;;23.20;59.90;;;;;;5063214;28;20011;-77
2022/06/20 13:12:26;;;;;;;;;;;23.10;61.00;;;;;;5061981;28;20003;-77
2022/06/20 13:15:17;;;;;;;;;;;23.20;60.20;;;;;;5075363;28;19974;-79
2022/06/20 13:17:59;;;;;;;;;;;23.20;60.50;;;;;;5065628;28;20308;-78
2022/06/20 13:20:24;;;;;;;;;;;23.10;61.00;;;;;;5069800;28;19913;-77
2022/06/20 13:22:52;;;;;;;;;;;23.20;61.30;;;;;;5070617;28;19908;-78
2022/06/20 13:25:30;;;;;;;;;;;23.10;60.60;;;;;;5069365;28;19913;-78
2022/06/20 13:28:21;;;;;;;;;;;23.20;60.90;;;;;;5068770;28;19959;-79
2022/06/20 13:31:11;;;;;;;;;;;23.10;60.90;;;;;;5043223;28;19913;-77
2022/06/20 13:33:42;;;;;;;;;;;23.30;60.90;;;;;;5068462;28;19919;-78
2022/06/20 13:36:20;;;;;;;;;;;23.30;60.50;;;;;;5062597;28;19921;-78
2022/06/20 13:39:04;;;;;;;;;;;23.30;60.90;;;;;;5068694;28;20110;-78
2022/06/20 13:41:29;;;;;;;;;;;23.30;60.70;;;;;;5060124;28;19920;-79
2022/06/20 13:43:55;;;;;;;;;;;23.30;60.10;;;;;;5065742;28;19912;-78
2022/06/20 13:46:27;;;;;;;;;;;23.30;60.00;;;;;;5068912;28;20400;-78
2022/06/20 13:49:13;;;;;;;;;;;23.20;60.70;;;;;;5065568;28;19917;-78
2022/06/20 13:51:42;;;;;;;;;;;23.20;61.00;;;;;;5066930;28;19917;-78
2022/06/20 13:54:10;;;;;;;;;;;23.10;61.10;;;;;;5068707;28;19932;-78
2022/06/20 13:56:43;;;;;;;;;;;23.10;60.30;;;;;;5066336;28;19944;-78
2022/06/20 13:59:18;;;;;;;;;;;23.10;61.00;;;;;;5082242;28;19919;-79
2022/06/20 14:01:55;;;;;;;;;;;23.10;60.30;;;;;;5066801;28;20000;-78
2022/06/20 14:04:21;;;;;;;;;;;23.10;61.10;;;;;;5070357;28;19912;-78
2022/06/20 14:06:57;;;;;;;;;;;23.10;61.00;;;;;;5065922;28;19916;-78
2022/06/20 14:09:25;;;;;;;;;;;23.10;61.00;;;;;;5067188;28;19912;-78
2022/06/20 14:11:56;;;;;;;;;;;23.00;60.60;;;;;;5063823;28;19908;-78
2022/06/20 14:14:24;;;;;;;;;;;23.00;61.00;;;;;;5068732;28;19935;-78
2022/06/20 14:16:51;;;;;;;;;;;23.00;60.40;;;;;;5062559;28;19916;-79
2022/06/20 14:19:20;;;;;;;;;;;23.00;61.20;;;;;;5071849;28;19913;-78
2022/06/20 14:21:49;;;;;;;;;;;23.00;61.10;;;;;;5071382;28;20372;-78
2022/06/20 14:24:23;;;;;;;;;;;23.00;60.70;;;;;;5069629;28;19912;-78
2022/06/20 14:27:00;;;;;;;;;;;23.20;60.40;;;;;;5064531;28;19959;-77
2022/06/20 14:29:28;;;;;;;;;;;23.30;60.20;;;;;;5066867;28;19912;-78
2022/06/20 14:32:09;;;;;;;;;;;23.40;59.80;;;;;;5062090;28;19913;-79
2022/06/20 14:34:40;;;;;;;;;;;23.50;59.50;;;;;;5076566;28;19923;-78
2022/06/20 14:37:13;;;;;;;;;;;23.60;59.40;;;;;;5061246;28;19939;-79
2022/06/20 14:39:47;;;;;;;;;;;23.70;59.00;;;;;;5063913;28;20553;-79
2022/06/20 14:42:21;;;;;;;;;;;23.70;58.70;;;;;;5067916;28;19909;-78
2022/06/20 14:44:53;;;;;;;;;;;23.90;58.50;;;;;;5067205;28;19966;-78
2022/06/20 14:47:27;;;;;;;;;;;24.00;58.20;;;;;;5065543;28;19921;-78
2022/06/20 14:49:53;;;;;;;;;;;24.20;58.40;;;;;;5067567;28;19913;-78
2022/06/20 14:52:20;;;;;;;;;;;24.30;57.90;;;;;;5069619;28;20420;-79
2022/06/20 14:54:54;;;;;;;;;;;24.50;57.30;;;;;;5064752;28;19959;-79